Azul, Argentina
Current Conditions -  °F | °C
As of 5:00 AM on Tuesday 27 Jan 2015 (Local Time) from SAZM Reporting Station
Scattered Clouds Scattered Clouds  
Wind Chill: 20°   Ceiling: Unl
Heat Index: 20°   Visibility: 3mi
Dew Point: 19°   Wind: 0mph
Humidity: 94%   Direction: NA
Pressure: 29.68"   Gusts: NA
Location:  36.78°S, 59.87°W
Report Text: SAZM 270800Z 00000KT 5000 SCT030TCU SCT200 20/19 Q1005
Loading
Personal Weather Stations






























Interactive Weather Map New forecast layout! Learn more

10-Day Weather Forecast

Advertisements
Track Severe Weather on mobile